Time;durP1;ratioP1;P1;durP2;ratioP2;P2;SDS_P1;SDS_P2;PMS_P1;PMS_P2;Temp;Humidity;BMP_temperature;BMP_pressure;BME280_temperature;BME280_humidity;BME280_pressure;Samples;Min_cycle;Max_cycle;Signal;HPM_P1;HPM_P2
2023/08/04 00:00:09;;;;;;;354.70;219.55;;;;;;;9.27;100.00;101635.78;5072479;28;20095;-83
2023/08/04 00:02:36;;;;;;;350.38;219.23;;;;;;;9.36;100.00;101659.03;5055877;28;20090;-84
2023/08/04 00:05:02;;;;;;;373.33;231.52;;;;;;;9.33;100.00;101653.13;5072767;28;20048;-83
2023/08/04 00:07:28;;;;;;;343.52;215.48;;;;;;;9.16;100.00;101644.00;5072828;28;20071;-83
2023/08/04 00:09:53;;;;;;;349.35;219.50;;;;;;;8.98;100.00;101636.69;5056187;28;20059;-83
2023/08/04 00:12:19;;;;;;;359.20;224.15;;;;;;;9.07;100.00;101643.00;5073528;28;20035;-83
2023/08/04 00:14:48;;;;;;;345.83;217.25;;;;;;;9.14;100.00;101654.03;5073839;28;20050;-83
2023/08/04 00:17:14;;;;;;;343.63;214.82;;;;;;;9.09;100.00;101648.25;5072613;28;20060;-83
2023/08/04 00:19:40;;;;;;;330.67;208.18;;;;;;;9.14;100.00;101646.81;5072580;28;20029;-83
2023/08/04 00:22:06;;;;;;;345.10;217.52;;;;;;;9.17;100.00;101661.78;5072715;28;20029;-84
2023/08/04 00:24:31;;;;;;;344.88;216.63;;;;;;;8.92;100.00;101644.47;5072733;28;20371;-84
2023/08/04 00:26:57;;;;;;;327.10;203.27;;;;;;;8.76;100.00;101637.84;5072179;28;20028;-83
2023/08/04 00:29:23;;;;;;;333.10;210.00;;;;;;;8.72;100.00;101649.00;5073694;28;20037;-83
2023/08/04 00:31:48;;;;;;;380.70;239.68;;;;;;;8.68;100.00;101658.28;5055721;28;20039;-85
2023/08/04 00:34:14;;;;;;;335.08;213.77;;;;;;;8.71;100.00;101660.72;5055502;28;20036;-84
2023/08/04 00:36:39;;;;;;;341.05;216.93;;;;;;;8.73;100.00;101675.69;5055891;28;20031;-85
2023/08/04 00:39:05;;;;;;;339.17;216.82;;;;;;;8.68;100.00;101652.94;5073482;28;20537;-83
2023/08/04 00:41:30;;;;;;;343.50;216.02;;;;;;;8.84;100.00;101658.59;5072421;28;20029;-84
2023/08/04 00:43:56;;;;;;;335.13;214.20;;;;;;;8.94;100.00;101663.94;5055272;28;20360;-83
2023/08/04 00:46:22;;;;;;;339.73;217.25;;;;;;;8.99;100.00;101667.03;5072419;28;20037;-83
2023/08/04 00:48:48;;;;;;;317.13;201.50;;;;;;;8.92;100.00;101653.34;5039281;28;20071;-83
2023/08/04 00:51:14;;;;;;;329.63;208.75;;;;;;;8.96;100.00;101664.63;5072331;28;20374;-83
2023/08/04 00:53:39;;;;;;;355.08;224.63;;;;;;;8.98;100.00;101668.03;5072303;28;20031;-83
2023/08/04 00:56:05;;;;;;;358.63;228.73;;;;;;;8.93;100.00;101651.53;5075305;28;20439;-85
2023/08/04 00:58:33;;;;;;;362.15;228.98;;;;;;;9.00;100.00;101680.31;5075932;28;20068;-85
2023/08/04 01:01:00;;;;;;;368.02;234.80;;;;;;;8.91;100.00;101677.63;5075891;28;20028;-84
2023/08/04 01:03:26;;;;;;;370.13;233.88;;;;;;;8.87;100.00;101676.25;5076129;28;20119;-83
2023/08/04 01:06:18;;;;;;;361.83;227.98;;;;;;;8.69;100.00;101679.63;5076679;28;20068;-84
2023/08/04 01:08:51;;;;;;;326.17;210.80;;;;;;;8.49;100.00;101678.75;5047954;28;20094;-84
2023/08/04 01:11:20;;;;;;;310.05;198.75;;;;;;;8.25;100.00;101664.88;5059070;28;20052;-83
2023/08/04 01:13:47;;;;;;;333.35;216.55;;;;;;;8.18;100.00;101686.03;5042900;28;20086;-83
2023/08/04 01:16:13;;;;;;;329.25;213.95;;;;;;;8.00;100.00;101667.06;5059423;28;20035;-84
2023/08/04 01:18:38;;;;;;;326.80;211.48;;;;;;;7.97;100.00;101677.22;5059213;28;20033;-83
2023/08/04 01:21:04;;;;;;;329.73;211.45;;;;;;;8.28;100.00;101686.88;5075503;28;20048;-83
2023/08/04 01:23:30;;;;;;;339.88;216.85;;;;;;;8.29;100.00;101672.50;5076925;28;20029;-83
2023/08/04 01:25:56;;;;;;;368.85;237.13;;;;;;;8.34;100.00;101680.97;5076002;28;20044;-83
2023/08/04 01:28:23;;;;;;;353.35;228.27;;;;;;;8.37;100.00;101688.72;5059172;28;20036;-83
2023/08/04 01:30:52;;;;;;;364.70;235.82;;;;;;;8.28;100.00;101681.53;5042428;28;20044;-83
2023/08/04 01:33:17;;;;;;;369.13;236.82;;;;;;;8.23;100.00;101689.13;5058860;28;20040;-83
2023/08/04 01:35:43;;;;;;;365.50;235.20;;;;;;;8.19;100.00;101703.78;5075264;28;20028;-83
2023/08/04 01:38:09;;;;;;;352.23;230.63;;;;;;;7.88;100.00;101677.03;5075423;28;20025;-82
2023/08/04 01:40:35;;;;;;;337.15;219.25;;;;;;;7.95;100.00;101700.59;5075191;28;20032;-83
2023/08/04 01:43:01;;;;;;;323.30;212.68;;;;;;;7.78;100.00;101699.41;5075549;28;20036;-83
2023/08/04 01:45:26;;;;;;;364.65;237.88;;;;;;;7.58;100.00;101679.75;5058807;28;20392;-83
2023/08/04 01:47:52;;;;;;;353.60;232.10;;;;;;;7.44;100.00;101680.94;5076527;28;20033;-83
2023/08/04 01:50:18;;;;;;;356.23;233.80;;;;;;;7.61;100.00;101708.91;5075328;28;20040;-83
2023/08/04 01:52:43;;;;;;;325.38;214.73;;;;;;;7.56;100.00;101711.13;5074965;28;20029;-83
2023/08/04 01:55:09;;;;;;;323.73;214.98;;;;;;;7.55;100.00;101709.44;5076410;28;20120;-84
2023/08/04 01:57:34;;;;;;;326.33;216.70;;;;;;;7.51;100.00;101708.00;5074859;28;20024;-83
2023/08/04 02:00:00;;;;;;;326.13;213.98;;;;;;;7.48;100.00;101703.75;5076203;28;20031;-83
2023/08/04 02:02:26;;;;;;;327.02;216.05;;;;;;;7.40;100.00;101693.72;5058499;28;20544;-83
2023/08/04 02:04:52;;;;;;;323.23;214.65;;;;;;;7.65;100.00;101710.34;5074740;28;20031;-83
2023/08/04 02:07:17;;;;;;;319.52;210.80;;;;;;;7.69;100.00;101701.91;5057138;28;20040;-83
2023/08/04 02:09:43;;;;;;;317.92;209.30;;;;;;;7.65;100.00;101691.63;5076066;28;20033;-84
2023/08/04 02:12:08;;;;;;;325.63;216.45;;;;;;;7.80;100.00;101703.63;5041561;28;20048;-83
2023/08/04 02:14:34;;;;;;;312.60;205.27;;;;;;;7.88;100.00;101706.47;5074616;28;20021;-83
2023/08/04 02:17:09;;;;;;;304.15;198.63;;;;;;;7.91;100.00;101700.88;5075587;28;20031;-83
2023/08/04 02:19:39;;;;;;;314.25;210.93;;;;;;;7.98;100.00;101692.28;5074476;28;20547;-83
2023/08/04 02:22:04;;;;;;;313.05;206.55;;;;;;;8.06;100.00;101685.25;5075391;28;20125;-83
2023/08/04 02:24:30;;;;;;;320.23;213.82;;;;;;;8.06;100.00;101687.09;5075820;28;20482;-82
2023/08/04 02:26:55;;;;;;;318.95;209.70;;;;;;;7.96;100.00;101692.41;5058124;28;20185;-83
2023/08/04 02:29:21;;;;;;;311.33;202.52;;;;;;;7.97;100.00;101686.09;5074260;28;20040;-82
2023/08/04 02:31:46;;;;;;;317.48;208.05;;;;;;;7.95;100.00;101690.75;5041437;28;20379;-83
2023/08/04 02:34:12;;;;;;;331.08;217.95;;;;;;;7.89;100.00;101681.41;5075359;28;20044;-84
2023/08/04 02:36:38;;;;;;;324.40;214.30;;;;;;;7.80;100.00;101695.59;5075369;28;20022;-83
2023/08/04 02:39:03;;;;;;;313.25;207.05;;;;;;;7.74;100.00;101703.34;5057853;28;20028;-83
2023/08/04 02:41:29;;;;;;;313.10;207.32;;;;;;;7.66;100.00;101696.81;5074069;28;20028;-83
2023/08/04 02:43:55;;;;;;;303.80;201.77;;;;;;;7.70;100.00;101697.41;5074274;28;20067;-83
2023/08/04 02:46:22;;;;;;;306.17;201.73;;;;;;;7.63;100.00;101702.44;5075148;28;20421;-83
2023/08/04 02:48:48;;;;;;;300.90;200.02;;;;;;;7.71;100.00;101701.78;5075691;28;20098;-82
2023/08/04 02:51:14;;;;;;;336.42;220.10;;;;;;;7.57;100.00;101689.59;5075344;28;20390;-82
2023/08/04 02:53:43;;;;;;;340.50;227.10;;;;;;;7.63;100.00;101705.13;5073805;28;20024;-81
2023/08/04 02:56:11;;;;;;;342.50;228.65;;;;;;;7.60;100.00;101691.16;5074057;28;20032;-82
2023/08/04 02:58:37;;;;;;;336.63;224.07;;;;;;;7.60;100.00;101696.53;5074219;28;20028;-82
2023/08/04 03:01:03;;;;;;;330.30;220.60;;;;;;;7.56;100.00;101684.38;5057456;28;20487;-82
2023/08/04 03:03:32;;;;;;;294.92;196.85;;;;;;;7.55;100.00;101690.72;5040928;28;20417;-82
2023/08/04 03:05:59;;;;;;;295.17;196.15;;;;;;;7.44;100.00;101679.09;5040753;28;20032;-82
2023/08/04 03:08:24;;;;;;;300.20;200.82;;;;;;;7.46;100.00;101685.19;5057134;28;20123;-82
2023/08/04 03:10:50;;;;;;;333.65;222.82;;;;;;;7.52;100.00;101699.00;5073462;28;20562;-81
2023/08/04 03:13:16;;;;;;;340.35;224.73;;;;;;;7.35;100.00;101684.41;5057358;28;20123;-82
2023/08/04 03:15:42;;;;;;;342.52;226.07;;;;;;;7.45;100.00;101712.91;5074814;28;20056;-82
2023/08/04 03:18:08;;;;;;;342.55;228.13;;;;;;;7.18;100.00;101664.47;5073415;28;20040;-82
2023/08/04 03:20:38;;;;;;;312.92;212.77;;;;;;;7.23;100.00;101683.63;5074258;28;20024;-84
2023/08/04 03:23:05;;;;;;;296.02;198.50;;;;;;;7.32;100.00;101704.22;5074684;28;20086;-82
2023/08/04 03:25:31;;;;;;;319.33;215.45;;;;;;;7.37;100.00;101726.09;5040448;28;20040;-82
2023/08/04 03:27:57;;;;;;;332.20;220.65;;;;;;;7.37;100.00;101715.41;5039940;28;20106;-83
2023/08/04 03:30:22;;;;;;;301.20;201.52;;;;;;;7.42;100.00;101723.88;5040569;28;20036;-84
2023/08/04 03:32:48;;;;;;;331.23;220.68;;;;;;;7.39;100.00;101726.81;5073622;28;20548;-83
2023/08/04 03:35:13;;;;;;;329.23;220.15;;;;;;;7.24;100.00;101709.41;5056757;28;20044;-83
2023/08/04 03:37:39;;;;;;;319.60;215.63;;;;;;;7.18;100.00;101715.28;5056552;28;20029;-83
2023/08/04 03:40:07;;;;;;;320.65;216.32;;;;;;;7.06;100.00;101698.44;5056217;28;20056;-82
2023/08/04 03:42:33;;;;;;;326.58;219.63;;;;;;;7.04;100.00;101700.41;5056645;28;20542;-83
2023/08/04 03:44:58;;;;;;;314.98;213.32;;;;;;;6.90;100.00;101685.50;5056564;28;20028;-83
2023/08/04 03:47:24;;;;;;;288.65;195.35;;;;;;;6.90;100.00;101701.53;5072667;28;20036;-82
2023/08/04 03:49:50;;;;;;;311.55;209.45;;;;;;;6.89;100.00;101712.38;5073007;28;20036;-82
2023/08/04 03:52:15;;;;;;;295.00;199.60;;;;;;;6.72;100.00;101697.72;5073064;28;20107;-82
2023/08/04 03:54:41;;;;;;;652.13;264.40;;;;;;;6.68;100.00;101712.34;5072502;28;20032;-82
2023/08/04 03:57:06;;;;;;;291.30;197.23;;;;;;;6.58;100.00;101705.06;5072620;28;20103;-82
2023/08/04 03:59:32;;;;;;;281.50;191.27;;;;;;;6.57;100.00;101703.38;5055834;28;20036;-82
2023/08/04 04:01:58;;;;;;;284.45;193.20;;;;;;;6.47;100.00;101702.44;5056444;28;20028;-82
2023/08/04 04:04:23;;;;;;;282.40;193.57;;;;;;;6.48;100.00;101708.63;5073051;28;20032;-82
2023/08/04 04:06:49;;;;;;;276.00;190.00;;;;;;;6.54;100.00;101725.03;5072742;28;20106;-82
2023/08/04 04:09:15;;;;;;;277.80;191.32;;;;;;;6.30;100.00;101685.13;5072807;28;20043;-82
2023/08/04 04:11:40;;;;;;;285.27;197.52;;;;;;;6.57;100.00;101713.25;5056199;28;20029;-82
2023/08/04 04:14:07;;;;;;;284.48;196.27;;;;;;;6.67;100.00;101706.16;5072681;28;20025;-82
2023/08/04 04:16:33;;;;;;;282.73;196.27;;;;;;;6.74;100.00;101699.31;5070721;28;20074;-82
2023/08/04 04:18:58;;;;;;;282.98;196.85;;;;;;;6.74;100.00;101714.50;5073122;28;20040;-83
2023/08/04 04:21:24;;;;;;;280.98;194.77;;;;;;;6.54;100.00;101697.47;5072427;28;20031;-82
2023/08/04 04:23:50;;;;;;;290.80;199.50;;;;;;;6.52;100.00;101716.28;5072397;28;20036;-82
2023/08/04 04:26:15;;;;;;;286.98;198.23;;;;;;;6.56;100.00;101719.53;5073503;28;20028;-81
2023/08/04 04:28:41;;;;;;;282.10;195.07;;;;;;;6.63;100.00;101712.72;5072044;28;20040;-81
2023/08/04 04:31:07;;;;;;;280.85;195.68;;;;;;;6.70;100.00;101713.91;5071860;28;20115;-81
2023/08/04 04:33:32;;;;;;;291.75;201.02;;;;;;;6.73;100.00;101704.78;5055609;28;20032;-82
2023/08/04 04:35:58;;;;;;;293.08;202.90;;;;;;;7.02;100.00;101731.78;5072690;28;20028;-82
2023/08/04 04:38:29;;;;;;;294.77;204.07;;;;;;;6.93;100.00;101708.47;5073328;28;20024;-82
2023/08/04 04:41:00;;;;;;;293.98;203.48;;;;;;;6.96;100.00;101730.47;5072852;28;20043;-82
2023/08/04 04:43:26;;;;;;;291.88;201.05;;;;;;;6.80;100.00;101725.53;5072075;28;20047;-82
2023/08/04 04:45:52;;;;;;;296.73;204.70;;;;;;;6.76;100.00;101728.59;5056364;28;20036;-82
2023/08/04 04:48:19;;;;;;;290.27;201.18;;;;;;;6.69;100.00;101730.91;5055648;28;20386;-82
2023/08/04 04:50:44;;;;;;;293.27;200.63;;;;;;;6.41;100.00;101684.25;5072250;28;20036;-82
2023/08/04 04:53:10;;;;;;;288.92;201.02;;;;;;;6.41;100.00;101675.41;5054882;28;20037;-82
2023/08/04 04:55:36;;;;;;;285.30;198.55;;;;;;;6.65;100.00;101715.28;5072183;28;20028;-82
2023/08/04 04:58:02;;;;;;;286.70;199.05;;;;;;;6.73;100.00;101734.19;5055740;28;20069;-81
2023/08/04 05:00:27;;;;;;;278.95;193.30;;;;;;;6.74;100.00;101709.16;5072042;28;20482;-82
2023/08/04 05:02:53;;;;;;;287.65;199.18;;;;;;;6.85;100.00;101722.47;5055589;28;20090;-82
2023/08/04 05:05:19;;;;;;;284.10;195.32;;;;;;;6.95;100.00;101726.06;5053773;28;20037;-82
2023/08/04 05:07:44;;;;;;;286.95;197.13;;;;;;;6.99;100.00;101732.88;5072986;28;20040;-81
2023/08/04 05:10:10;;;;;;;289.33;199.25;;;;;;;7.07;100.00;101734.06;5038948;28;20079;-84
2023/08/04 05:12:36;;;;;;;308.45;210.68;;;;;;;7.09;100.00;101716.03;5072072;28;20047;-82
2023/08/04 05:15:02;;;;;;;321.05;217.77;;;;;;;7.23;100.00;101727.28;5071922;28;20067;-82
2023/08/04 05:17:28;;;;;;;323.15;218.18;;;;;;;7.37;100.00;101731.44;5071452;28;20360;-82
2023/08/04 05:19:53;;;;;;;311.90;210.93;;;;;;;7.44;100.00;101715.72;5055176;28;20039;-82
2023/08/04 05:22:19;;;;;;;299.90;203.23;;;;;;;7.63;100.00;101725.69;5055609;28;20113;-81
2023/08/04 05:24:45;;;;;;;279.60;188.50;;;;;;;7.79;100.00;101727.88;5053470;28;20039;-82
2023/08/04 05:27:19;;;;;;;285.55;191.57;;;;;;;8.08;100.00;101733.34;5071529;28;20033;-82
2023/08/04 05:29:45;;;;;;;290.30;193.30;;;;;;;8.18;100.00;101726.22;5071772;28;20115;-82
2023/08/04 05:32:10;;;;;;;323.00;211.85;;;;;;;8.41;100.00;101744.75;5071539;28;20036;-82
2023/08/04 05:34:36;;;;;;;296.77;195.10;;;;;;;8.48;100.00;101732.50;5071991;28;20024;-83
2023/08/04 05:37:02;;;;;;;320.98;207.60;;;;;;;8.61;100.00;101738.44;5072584;28;20383;-83
2023/08/04 05:39:27;;;;;;;339.45;219.80;;;;;;;8.67;100.00;101729.84;5073215;28;20093;-82
2023/08/04 05:41:53;;;;;;;340.80;219.52;;;;;;;8.75;100.00;101732.66;5040198;28;20132;-82
2023/08/04 05:44:19;;;;;;;339.42;218.38;;;;;;;8.69;100.00;101705.59;5076590;28;20451;-82
2023/08/04 05:46:44;;;;;;;344.52;220.65;;;;;;;8.90;100.00;101729.59;5042238;28;20127;-82
2023/08/04 05:49:10;;;;;;;355.58;226.15;;;;;;;8.88;100.00;101726.19;5075300;28;20107;-82
2023/08/04 05:51:35;;;;;;;339.30;215.80;;;;;;;8.91;100.00;101725.91;5058597;28;20044;-83
2023/08/04 05:54:01;;;;;;;369.15;234.52;;;;;;;8.84;100.00;101706.88;5053485;28;20562;-82
2023/08/04 05:56:27;;;;;;;365.08;231.63;;;;;;;9.13;100.00;101741.72;5038077;28;20032;-82
2023/08/04 05:58:52;;;;;;;363.38;229.02;;;;;;;9.23;100.00;101745.25;5055051;28;20384;-84
2023/08/04 06:01:18;;;;;;;359.85;223.88;;;;;;;9.55;100.00;101756.63;5055186;28;20033;-84
2023/08/04 06:03:43;;;;;;;365.33;224.15;;;;;;;9.87;100.00;101751.75;5038197;28;20057;-83
2023/08/04 06:06:09;;;;;;;321.45;196.70;;;;;;;10.13;100.00;101756.44;5068364;28;20463;-83
2023/08/04 06:08:35;;;;;;;382.98;232.40;;;;;;;10.18;100.00;101753.31;5075279;28;20047;-82
2023/08/04 06:11:00;;;;;;;385.08;234.32;;;;;;;10.28;100.00;101760.34;5074767;28;20040;-82
2023/08/04 06:13:26;;;;;;;383.08;233.35;;;;;;;10.41;100.00;101745.72;5075405;28;20056;-82
2023/08/04 06:15:52;;;;;;;389.52;235.15;;;;;;;10.54;100.00;101748.91;5074785;28;20497;-83
2023/08/04 06:18:17;;;;;;;386.73;234.20;;;;;;;10.71;100.00;101744.53;5073710;28;20066;-83
2023/08/04 06:20:47;;;;;;;385.95;231.07;;;;;;;10.87;100.00;101759.97;5057799;28;20032;-83
2023/08/04 06:23:13;;;;;;;389.48;231.30;;;;;;;10.73;100.00;101734.47;5058732;28;20032;-84
2023/08/04 06:25:39;;;;;;;389.85;230.73;;;;;;;10.74;100.00;101749.59;5075383;28;20078;-83
2023/08/04 06:28:05;;;;;;;393.52;232.93;;;;;;;10.77;100.00;101765.47;5074362;28;20061;-83
2023/08/04 06:30:31;;;;;;;383.85;228.55;;;;;;;10.72;100.00;101760.53;5054276;28;20039;-83
2023/08/04 06:32:56;;;;;;;376.25;221.77;;;;;;;10.54;100.00;101730.91;5054492;28;20036;-83
2023/08/04 06:35:22;;;;;;;392.33;233.80;;;;;;;10.46;100.00;101724.59;5037978;28;20033;-83
2023/08/04 06:37:47;;;;;;;392.38;232.82;;;;;;;10.56;100.00;101747.75;5071238;28;20143;-83
2023/08/04 06:40:13;;;;;;;394.88;232.45;;;;;;;10.55;100.00;101740.66;5054014;28;20025;-83
2023/08/04 06:42:39;;;;;;;389.30;232.07;;;;;;;10.54;100.00;101746.22;5065132;28;20502;-83
2023/08/04 06:45:06;;;;;;;393.83;233.25;;;;;;;10.54;100.00;101743.50;5074504;28;20044;-83
2023/08/04 06:47:32;;;;;;;391.52;231.90;;;;;;;10.52;100.00;101740.97;5041182;28;20067;-83
2023/08/04 06:49:57;;;;;;;383.92;229.75;;;;;;;10.67;100.00;101760.13;5074114;28;20111;-83
2023/08/04 06:52:23;;;;;;;385.83;230.88;;;;;;;10.84;100.00;101752.22;5074359;28;20032;-84
2023/08/04 06:54:49;;;;;;;382.77;228.63;;;;;;;10.96;100.00;101741.09;5074288;28;20079;-84
2023/08/04 06:57:15;;;;;;;386.90;229.48;;;;;;;11.15;100.00;101742.75;5073734;28;20025;-83
2023/08/04 06:59:41;;;;;;;386.50;228.60;;;;;;;11.37;100.00;101744.09;5073591;28;20102;-83
2023/08/04 07:02:06;;;;;;;387.95;228.05;;;;;;;11.60;100.00;101752.50;5039813;28;20041;-83
2023/08/04 07:04:32;;;;;;;394.70;229.75;;;;;;;11.82;100.00;101748.44;5057145;28;20033;-83
2023/08/04 07:06:57;;;;;;;395.88;229.68;;;;;;;11.95;100.00;101736.41;5073938;28;20051;-83
2023/08/04 07:09:23;;;;;;;388.38;226.40;;;;;;;12.11;100.00;101744.56;5040653;28;20062;-83
2023/08/04 07:11:49;;;;;;;393.23;225.73;;;;;;;12.24;100.00;101736.88;5072596;28;20394;-83
2023/08/04 07:14:15;;;;;;;393.60;226.95;;;;;;;12.40;100.00;101730.69;5074846;28;20032;-81
2023/08/04 07:16:41;;;;;;;389.73;224.25;;;;;;;12.62;100.00;101726.56;5073683;28;20028;-83
2023/08/04 07:19:07;;;;;;;392.77;223.35;;;;;;;12.73;100.00;101738.88;5056497;28;20032;-83
2023/08/04 07:21:32;;;;;;;403.25;228.40;;;;;;;12.90;100.00;101737.03;5073532;28;20071;-84
2023/08/04 07:23:58;;;;;;;401.85;230.02;;;;;;;13.20;100.00;101739.09;5074339;28;20041;-83
2023/08/04 07:26:24;;;;;;;406.02;228.50;;;;;;;13.52;100.00;101733.84;5073395;28;20024;-83
2023/08/04 07:28:49;;;;;;;410.10;228.05;;;;;;;13.81;100.00;101736.84;5074276;28;20488;-84
2023/08/04 07:31:15;;;;;;;409.05;226.35;;;;;;;13.99;100.00;101754.69;5056689;28;20028;-84
2023/08/04 07:33:40;;;;;;;405.42;224.95;;;;;;;14.13;100.00;101761.22;5056450;28;20094;-83
2023/08/04 07:36:06;;;;;;;408.40;224.82;;;;;;;14.01;100.00;101750.78;5052656;28;20041;-83
2023/08/04 07:38:32;;;;;;;405.77;224.77;;;;;;;13.91;100.00;101746.59;5053128;28;20037;-83
2023/08/04 07:40:58;;;;;;;402.73;222.15;;;;;;;13.92;100.00;101727.50;5055960;28;20037;-83
2023/08/04 07:43:24;;;;;;;412.10;224.60;;;;;;;14.22;100.00;101750.19;5039582;28;20024;-83
2023/08/04 07:45:51;;;;;;;404.05;222.45;;;;;;;14.40;100.00;101749.13;5035982;28;20040;-83
2023/08/04 07:48:17;;;;;;;408.30;221.88;;;;;;;14.60;100.00;101736.00;5036273;28;20078;-84
2023/08/04 07:50:53;;;;;;;415.50;225.18;;;;;;;14.95;100.00;101754.38;5066593;28;20037;-85
2023/08/04 07:53:21;;;;;;;414.77;223.98;;;;;;;15.16;100.00;101766.41;5040988;28;20036;-84
2023/08/04 07:55:57;;;;;;;413.63;222.80;;;;;;;15.32;100.00;101750.03;5056225;28;20066;-86
2023/08/04 07:58:23;;;;;;;414.10;222.18;;;;;;;15.56;100.00;101762.50;5056271;28;20040;-84
2023/08/04 08:00:49;;;;;;;417.83;222.43;;;;;;;15.75;100.00;101755.75;5056009;28;20035;-84
2023/08/04 08:03:14;;;;;;;417.65;221.13;;;;;;;15.90;100.00;101739.47;5055662;28;20029;-84
2023/08/04 08:05:40;;;;;;;418.08;221.55;;;;;;;16.17;100.00;101769.69;5071954;28;20417;-85
2023/08/04 08:08:05;;;;;;;418.50;222.07;;;;;;;15.87;100.00;101756.13;5072454;28;20032;-87
2023/08/04 08:10:31;;;;;;;421.45;223.00;;;;;;;16.03;100.00;101771.34;5037713;28;20048;-86
2023/08/04 08:12:57;;;;;;;421.95;220.63;;;;;;;16.46;100.00;101753.38;5052656;28;20044;-86
2023/08/04 08:15:22;;;;;;;428.65;224.50;;;;;;;16.74;100.00;101746.34;5036199;28;20033;-86
2023/08/04 08:17:48;;;;;;;426.17;222.02;;;;;;;16.98;100.00;101754.16;5035789;28;20475;-85
2023/08/04 08:20:14;;;;;;;432.35;223.00;;;;;;;17.22;100.00;101741.22;5052171;28;20111;-87
2023/08/04 08:22:42;;;;;;;426.00;220.65;;;;;;;17.36;100.00;101741.13;5036058;28;20085;-87
2023/08/04 08:25:10;;;;;;;428.10;220.23;;;;;;;17.47;100.00;101745.19;5039674;28;20028;-84
2023/08/04 08:27:35;;;;;;;426.58;220.38;;;;;;;17.27;100.00;101739.59;5072148;28;20024;-84
2023/08/04 08:30:01;;;;;;;415.63;215.52;;;;;;;17.25;100.00;101725.38;5072533;28;20031;-84
2023/08/04 08:32:27;;;;;;;412.80;214.25;;;;;;;17.33;100.00;101743.38;5055657;28;20032;-84
2023/08/04 08:34:53;;;;;;;412.13;213.02;;;;;;;17.23;100.00;101723.88;5071725;28;20025;-83
2023/08/04 08:37:18;;;;;;;411.27;212.55;;;;;;;17.30;100.00;101735.63;5071754;28;20111;-84
2023/08/04 08:39:46;;;;;;;392.70;204.65;;;;;;;17.19;100.00;101726.13;5070139;28;20059;-85
2023/08/04 08:42:12;;;;;;;397.38;205.57;;;;;;;17.17;100.00;101730.09;5071233;28;20024;-84
2023/08/04 08:44:37;;;;;;;393.67;204.48;;;;;;;17.26;100.00;101718.88;5071427;28;20028;-84
2023/08/04 08:47:03;;;;;;;400.75;208.02;;;;;;;17.35;100.00;101741.31;5070808;28;20060;-84
2023/08/04 08:49:32;;;;;;;397.98;206.32;;;;;;;17.30;100.00;101736.47;5054965;28;20029;-84
2023/08/04 08:51:58;;;;;;;379.13;197.00;;;;;;;17.31;100.00;101726.47;5055739;28;20040;-84
2023/08/04 08:54:24;;;;;;;376.30;196.35;;;;;;;17.09;100.00;101710.19;5055785;28;20024;-84
2023/08/04 08:56:52;;;;;;;377.80;195.82;;;;;;;16.96;100.00;101706.47;5055241;28;20029;-85
2023/08/04 08:59:18;;;;;;;385.75;200.48;;;;;;;17.04;100.00;101718.06;5054274;28;20040;-85
2023/08/04 09:01:44;;;;;;;386.52;201.55;;;;;;;17.11;100.00;101724.38;5072142;28;20378;-85
2023/08/04 09:04:10;;;;;;;384.33;200.77;;;;;;;17.15;100.00;101719.44;5053546;28;20021;-87
2023/08/04 09:06:38;;;;;;;383.17;199.52;;;;;;;17.26;100.00;101718.06;5054971;28;20035;-87
2023/08/04 09:09:05;;;;;;;378.20;198.38;;;;;;;17.40;100.00;101738.03;5055283;28;20469;-86
2023/08/04 09:11:30;;;;;;;382.73;200.10;;;;;;;17.57;100.00;101723.94;5071791;28;20028;-88
2023/08/04 09:13:56;;;;;;;382.83;199.23;;;;;;;17.76;100.00;101735.97;5039004;28;20044;-87
2023/08/04 09:16:36;;;;;;;381.20;196.32;;;;;;;17.67;100.00;101695.53;5056702;28;20094;-87
2023/08/04 09:19:04;;;;;;;384.23;199.40;;;;;;;17.79;99.54;101723.91;5075475;28;20073;-86
2023/08/04 09:21:30;;;;;;;395.73;203.00;;;;;;;17.77;99.18;101724.06;5058795;28;20037;-87
2023/08/04 09:23:56;;;;;;;393.92;204.35;;;;;;;17.71;98.90;101737.63;5075616;28;20036;-86
2023/08/04 09:26:22;;;;;;;401.95;206.45;;;;;;;17.59;99.85;101738.16;5075324;28;20028;-87
2023/08/04 09:29:05;;;;;;;397.20;205.48;;;;;;;17.64;100.00;101734.00;5059255;28;20036;-86
2023/08/04 09:31:41;;;;;;;392.58;202.93;;;;;;;17.67;99.53;101728.16;5042393;28;20066;-87
2023/08/04 09:34:08;;;;;;;394.83;203.77;;;;;;;17.68;98.64;101727.16;5083212;28;20035;-87
2023/08/04 09:36:47;;;;;;;390.15;201.40;;;;;;;17.78;99.16;101724.88;5062449;28;20032;-87
2023/08/04 09:39:13;;;;;;;393.85;203.90;;;;;;;17.94;99.82;101713.72;5042431;28;20090;-87
2023/08/04 09:41:44;;;;;;;396.08;204.18;;;;;;;18.14;99.32;101705.66;5075728;28;20028;-87
2023/08/04 09:44:10;;;;;;;388.85;201.40;;;;;;;18.21;94.70;101708.41;5075109;28;20024;-86
2023/08/04 09:46:52;;;;;;;375.52;193.52;;;;;;;18.13;94.78;101694.97;5074891;28;20387;-87
2023/08/04 09:49:19;;;;;;;377.42;193.75;;;;;;;18.18;94.90;101682.44;5075300;28;20119;-89
2023/08/04 09:51:44;;;;;;;359.58;185.23;;;;;;;18.44;92.60;101714.38;5075278;28;20037;-87
2023/08/04 09:54:10;;;;;;;371.15;190.65;;;;;;;18.28;89.61;101687.47;5074714;28;20380;-86
2023/08/04 09:56:36;;;;;;;370.67;191.25;;;;;;;18.42;86.60;101700.09;5074953;28;20025;-87
2023/08/04 09:59:03;;;;;;;381.48;195.40;;;;;;;18.27;85.09;101668.63;5042498;28;20086;-86
2023/08/04 10:01:29;;;;;;;386.80;197.95;;;;;;;18.61;82.11;101698.47;5074041;28;20028;-86
2023/08/04 10:03:57;;;;;;;386.52;197.80;;;;;;;18.80;80.33;101710.47;5057478;28;20536;-87
2023/08/04 10:06:26;;;;;;;384.48;196.23;;;;;;;18.95;78.04;101726.66;5058615;28;20083;-85
2023/08/04 10:08:55;;;;;;;374.20;190.90;;;;;;;19.10;78.29;101724.59;5042857;28;20131;-85
2023/08/04 10:11:24;;;;;;;365.20;187.43;;;;;;;19.10;74.93;101715.53;5054985;28;20124;-88
2023/08/04 10:13:52;;;;;;;366.73;188.27;;;;;;;18.98;75.49;101704.44;5070247;28;20127;-88
2023/08/04 10:16:22;;;;;;;354.27;182.48;;;;;;;18.89;73.85;101702.94;5023540;28;20037;-88
2023/08/04 10:18:55;;;;;;;362.65;186.32;;;;;;;18.62;73.29;101675.63;5022004;28;20025;-87
2023/08/04 10:21:25;;;;;;;351.40;181.05;;;;;;;18.77;72.36;101664.59;5021878;28;20036;-87
2023/08/04 10:23:52;;;;;;;348.52;180.43;;;;;;;19.20;72.01;101710.50;5038081;28;20083;-83
2023/08/04 10:26:18;;;;;;;352.10;180.13;;;;;;;19.07;70.71;101675.06;5054635;28;20028;-82
2023/08/04 10:29:01;;;;;;;345.90;178.40;;;;;;;19.01;68.58;101684.09;5056880;28;20031;-82
2023/08/04 10:31:50;;;;;;;360.08;184.15;;;;;;;18.87;68.70;101702.34;5074563;28;20036;-82
2023/08/04 10:34:37;;;;;;;357.45;183.25;;;;;;;18.93;70.30;101695.22;5057922;28;20032;-82
2023/08/04 10:37:11;;;;;;;352.42;181.38;;;;;;;19.10;69.02;101691.88;5073855;28;20097;-82
2023/08/04 10:39:41;;;;;;;335.40;174.05;;;;;;;19.15;68.02;101688.50;5057835;28;20024;-82
2023/08/04 10:42:27;;;;;;;364.63;187.18;;;;;;;19.23;67.04;101696.44;5041067;28;20029;-82
2023/08/04 10:44:56;;;;;;;372.08;191.35;;;;;;;19.17;65.79;101683.66;5057613;28;20039;-82
2023/08/04 10:47:47;;;;;;;378.92;193.93;;;;;;;19.26;65.47;101690.56;5040969;28;20036;-82
2023/08/04 10:50:14;;;;;;;350.42;181.95;;;;;;;19.30;65.35;101686.38;5057668;28;20041;-82